Time;durP1;ratioP1;P1;durP2;ratioP2;P2;SDS_P1;SDS_P2;PMS_P1;PMS_P2;Temp;Humidity;BMP_temperature;BMP_pressure;BME280_temperature;BME280_humidity;BME280_pressure;Samples;Min_cycle;Max_cycle;Signal;HPM_P1;HPM_P2
2021/12/07 00:01:28;;;;;;;;;;;;;;;17.45;61.51;98258.69;3849422;23;20107;-56
2021/12/07 00:03:00;;;;;;;0.38;0.38;;;;;;;17.43;61.57;98258.06;3846014;23;19930;-60
2021/12/07 00:04:31;;;;;;;0.68;0.30;;;;;;;17.41;61.68;98254.75;3847169;23;20029;-56
2021/12/07 00:06:04;;;;;;;0.55;0.30;;;;;;;17.39;61.58;98252.31;3849339;23;20050;-59
2021/12/07 00:07:36;;;;;;;0.20;0.17;;;;;;;17.37;61.67;98253.53;3849062;23;20135;-56
2021/12/07 00:09:12;;;;;;;0.35;0.35;;;;;;;17.37;61.60;98264.25;3848691;23;20101;-60
2021/12/07 00:10:44;;;;;;;0.47;0.25;;;;;;;17.34;61.62;98253.94;3849045;23;20044;-59
2021/12/07 00:12:17;;;;;;;0.98;0.47;;;;;;;17.33;61.75;98253.13;3847427;23;20027;-56
2021/12/07 00:13:48;;;;;;;0.93;0.43;;;;;;;17.30;61.69;98248.19;3848677;23;20103;-61
2021/12/07 00:15:22;;;;;;;1.20;0.80;;;;;;;17.29;61.80;98240.31;3847836;23;20020;-56
2021/12/07 00:16:56;;;;;;;0.70;0.38;;;;;;;17.25;61.82;98245.28;3849023;23;20479;-58
2021/12/07 00:18:28;;;;;;;0.47;0.30;;;;;;;17.24;61.90;98242.78;3847824;23;20572;-58
2021/12/07 00:20:01;;;;;;;1.92;0.60;;;;;;;17.22;61.93;98243.00;3846360;23;20017;-55
2021/12/07 00:21:33;;;;;;;1.08;0.55;;;;;;;17.22;61.88;98244.84;3848372;23;20035;-60
2021/12/07 00:23:08;;;;;;;0.65;0.22;;;;;;;17.19;61.86;98238.88;3848233;23;20048;-54
2021/12/07 00:24:40;;;;;;;0.30;0.30;;;;;;;17.19;61.80;98240.75;3848766;23;20036;-57
2021/12/07 00:26:12;;;;;;;0.30;0.30;;;;;;;17.15;61.87;98234.94;3847820;23;20498;-57
2021/12/07 00:27:44;;;;;;;0.40;0.20;;;;;;;17.13;61.92;98242.38;3846543;23;20486;-56
2021/12/07 00:29:17;;;;;;;0.43;0.20;;;;;;;17.12;61.86;98234.53;3848148;23;20533;-57
2021/12/07 00:30:50;;;;;;;0.85;0.22;;;;;;;17.10;61.88;98234.72;3849217;23;20082;-55
2021/12/07 00:32:28;;;;;;;1.17;0.25;;;;;;;17.09;61.88;98234.94;3846945;23;20031;-61
2021/12/07 00:34:11;;;;;;;0.43;0.25;;;;;;;17.07;61.92;98235.13;3846274;23;20055;-53
2021/12/07 00:35:43;;;;;;;0.50;0.50;;;;;;;17.06;61.95;98230.00;3848374;23;20111;-54
2021/12/07 00:37:15;;;;;;;0.20;0.20;;;;;;;17.05;61.90;98231.84;3849023;23;20024;-59
2021/12/07 00:38:46;;;;;;;;;;;;;;;17.01;62.04;98232.44;3848905;23;20032;-56
2021/12/07 00:40:19;;;;;;;0.82;0.38;;;;;;;17.00;61.93;98228.13;3848956;23;19916;-51
2021/12/07 00:41:52;;;;;;;1.02;0.88;;;;;;;16.98;62.08;98217.59;3848805;23;20096;-56
2021/12/07 00:43:26;;;;;;;0.22;0.20;;;;;;;16.94;61.99;98214.50;3848114;23;20092;-54
2021/12/07 00:44:59;;;;;;;0.52;0.25;;;;;;;16.93;62.06;98207.47;3848383;23;20021;-57
2021/12/07 00:46:32;;;;;;;0.13;0.13;;;;;;;16.91;62.17;98206.88;3848495;23;20046;-55
2021/12/07 00:48:07;;;;;;;0.30;0.30;;;;;;;16.90;61.98;98209.75;3848959;23;20028;-57
2021/12/07 00:49:39;;;;;;;0.60;0.30;;;;;;;16.88;62.07;98211.81;3849667;23;20100;-52
2021/12/07 00:51:12;;;;;;;3.10;0.60;;;;;;;16.86;62.09;98208.53;3848081;23;20024;-60
2021/12/07 00:52:44;;;;;;;2.25;0.17;;;;;;;16.84;62.04;98215.94;3845497;23;20112;-56
2021/12/07 00:54:16;;;;;;;0.30;0.30;;;;;;;16.82;62.17;98216.13;3847874;23;20471;-56
2021/12/07 00:55:51;;;;;;;0.63;0.20;;;;;;;16.80;62.14;98220.88;3848142;23;20021;-58
2021/12/07 00:57:25;;;;;;;0.45;0.25;;;;;;;16.78;62.19;98224.78;3847834;23;20615;-54
2021/12/07 00:58:57;;;;;;;0.22;0.13;;;;;;;16.76;62.28;98224.94;3844558;23;20033;-54
2021/12/07 01:00:31;;;;;;;0.50;0.30;;;;;;;16.75;62.14;98229.47;3847060;23;20090;-54
2021/12/07 01:02:04;;;;;;;0.45;0.28;;;;;;;16.72;62.22;98232.56;3848715;23;20029;-56
2021/12/07 01:03:38;;;;;;;0.88;0.30;;;;;;;16.72;62.28;98229.06;3847663;23;20035;-60
2021/12/07 01:05:15;;;;;;;0.55;0.30;;;;;;;16.70;62.18;98229.25;3848178;23;20085;-56
2021/12/07 01:06:59;;;;;;;0.40;0.38;;;;;;;16.69;62.22;98222.25;3850370;23;20029;-53
2021/12/07 01:25:12;;;;;;;0.22;0.22;;;;;;;16.49;62.26;98194.56;3846096;23;20329;-56
2021/12/07 01:26:45;;;;;;;0.20;0.20;;;;;;;16.47;62.29;98193.94;3847892;23;20678;-57
2021/12/07 01:28:24;;;;;;;0.88;0.17;;;;;;;16.47;62.24;98193.94;3848220;23;20115;-57
2021/12/07 01:30:07;;;;;;;1.30;0.95;;;;;;;16.43;62.46;98193.50;3848517;23;20086;-55
2021/12/07 01:31:50;;;;;;;0.38;0.38;;;;;;;16.41;62.45;98195.56;3848574;23;20158;-59
2021/12/07 01:33:48;;;;;;;0.35;0.22;;;;;;;16.41;62.39;98194.72;3844992;23;20025;-54
2021/12/07 01:37:28;;;;;;;0.50;0.40;;;;;;;16.35;62.44;98190.19;3837746;23;20028;-57
2021/12/07 01:41:04;;;;;;;0.50;0.50;;;;;;;16.33;62.60;98194.94;3847251;23;20028;-56
2021/12/07 01:42:56;;;;;;;0.65;0.30;;;;;;;16.30;62.58;98201.50;3847450;23;20583;-53
2021/12/07 01:45:08;;;;;;;0.20;0.20;;;;;;;16.26;62.50;98198.38;3847813;23;20024;-58
2021/12/07 01:47:07;;;;;;;0.75;0.50;;;;;;;16.26;62.45;98194.88;3847709;23;20421;-55
2021/12/07 01:50:44;;;;;;;0.35;0.32;;;;;;;16.23;62.44;98190.75;3848818;23;20591;-53
2021/12/07 01:58:06;;;;;;;0.55;0.40;;;;;;;16.15;62.71;98180.22;3802979;23;20037;-56
2021/12/07 01:59:37;;;;;;;0.75;0.30;;;;;;;16.13;62.71;98168.06;3848700;23;20498;-58
2021/12/07 02:01:11;;;;;;;0.20;0.20;;;;;;;16.09;62.57;98157.75;3848246;23;20524;-53
2021/12/07 02:02:44;;;;;;;0.30;0.20;;;;;;;16.07;62.68;98151.81;3847995;23;20115;-53
2021/12/07 02:04:16;;;;;;;0.40;0.40;;;;;;;16.06;62.67;98160.00;3848086;23;20029;-54
2021/12/07 02:05:49;;;;;;;0.52;0.32;;;;;;;16.05;62.65;98156.50;3848716;23;20424;-58
2021/12/07 02:07:22;;;;;;;0.60;0.43;;;;;;;16.04;62.62;98152.16;3848960;23;20024;-52
2021/12/07 02:08:54;;;;;;;0.82;0.40;;;;;;;16.03;62.53;98149.72;3849281;23;20020;-55
2021/12/07 02:10:29;;;;;;;0.13;0.10;;;;;;;16.02;62.83;98153.41;3848852;23;20168;-55
2021/12/07 02:12:02;;;;;;;0.38;0.28;;;;;;;16.00;62.73;98166.16;3844944;23;20021;-55
2021/12/07 02:15:36;;;;;;;0.30;0.20;;;;;;;15.95;62.73;98148.03;3808924;23;20037;-57
2021/12/07 02:17:10;;;;;;;0.32;0.30;;;;;;;15.96;62.82;98148.84;3810573;23;20058;-59
2021/12/07 02:18:41;;;;;;;0.50;0.20;;;;;;;15.92;62.96;98144.91;3849077;23;20536;-57
2021/12/07 02:20:15;;;;;;;0.75;0.30;;;;;;;15.91;62.62;98148.59;3848897;23;20024;-60
2021/12/07 02:21:48;;;;;;;0.28;0.28;;;;;;;15.90;62.77;98146.97;3848393;23;20025;-57
2021/12/07 02:23:20;;;;;;;0.30;0.30;;;;;;;15.88;62.75;98149.84;3848575;23;20691;-50
2021/12/07 02:24:53;;;;;;;0.70;0.40;;;;;;;15.84;62.85;98146.72;3848585;23;20229;-58
2021/12/07 02:26:25;;;;;;;0.57;0.38;;;;;;;15.84;62.81;98146.72;3848883;23;20497;-58
2021/12/07 02:27:57;;;;;;;0.40;0.20;;;;;;;15.84;62.73;98146.72;3849535;23;20096;-57
2021/12/07 02:29:29;;;;;;;0.43;0.43;;;;;;;15.82;62.81;98147.94;3845067;23;20111;-56
2021/12/07 02:31:01;;;;;;;0.32;0.22;;;;;;;15.80;62.93;98150.81;3849674;23;20451;-54
2021/12/07 02:32:33;;;;;;;0.45;0.30;;;;;;;15.80;62.68;98152.69;3849240;23;20031;-57
2021/12/07 02:34:05;;;;;;;0.47;0.47;;;;;;;15.77;62.77;98153.91;3849465;23;20031;-56
2021/12/07 02:35:38;;;;;;;0.50;0.30;;;;;;;15.77;62.79;98159.25;3847865;23;20497;-53
2021/12/07 02:37:11;;;;;;;0.45;0.30;;;;;;;15.77;62.75;98156.56;3849073;23;20111;-57
2021/12/07 02:38:43;;;;;;;0.10;0.10;;;;;;;15.76;62.75;98157.56;3847713;23;20024;-55
2021/12/07 02:40:15;;;;;;;0.75;0.60;;;;;;;15.74;62.87;98154.28;3848771;23;20071;-57
2021/12/07 02:41:47;;;;;;;0.50;0.10;;;;;;;15.71;62.83;98152.03;3848721;23;20031;-55
2021/12/07 02:43:19;;;;;;;1.20;0.57;;;;;;;15.71;62.95;98161.84;3848536;23;20024;-58
2021/12/07 02:44:52;;;;;;;0.20;0.20;;;;;;;15.70;62.92;98160.22;3854477;23;20021;-55
2021/12/07 02:46:23;;;;;;;1.65;0.25;;;;;;;15.67;62.89;98161.41;3847903;23;20411;-57
2021/12/07 02:47:55;;;;;;;0.63;0.40;;;;;;;15.65;62.97;98164.25;3845288;23;20024;-55
2021/12/07 02:49:27;;;;;;;0.30;0.28;;;;;;;15.63;63.01;98162.84;3848314;23;20033;-52
2021/12/07 02:51:00;;;;;;;0.60;0.38;;;;;;;15.59;62.97;98157.03;3849133;23;20055;-55
2021/12/07 02:52:33;;;;;;;0.65;0.30;;;;;;;15.59;62.97;98154.34;3849298;23;20024;-53
2021/12/07 02:54:05;;;;;;;0.82;0.40;;;;;;;15.57;62.95;98150.22;3847645;23;20025;-57
2021/12/07 02:55:37;;;;;;;0.73;0.40;;;;;;;15.55;63.12;98158.47;3845669;23;20029;-55
2021/12/07 02:57:09;;;;;;;0.20;0.20;;;;;;;15.54;63.05;98156.78;3848309;23;20048;-55
2021/12/07 02:58:43;;;;;;;0.20;0.20;;;;;;;15.55;63.20;98147.75;3854328;23;20016;-56
2021/12/07 03:00:21;;;;;;;0.85;0.40;;;;;;;15.57;62.96;98147.56;3848220;23;20086;-55
2021/12/07 03:01:59;;;;;;;0.47;0.30;;;;;;;15.57;62.86;98155.56;3849196;23;20131;-54
2021/12/07 03:03:36;;;;;;;0.28;0.10;;;;;;;15.58;62.82;98157.25;3845608;23;20028;-57
2021/12/07 03:05:17;;;;;;;0.88;0.70;;;;;;;15.57;63.00;98150.22;3845418;23;20025;-59
2021/12/07 03:07:01;;;;;;;1.25;0.47;;;;;;;15.56;63.06;98153.94;3848918;23;20056;-54
2021/12/07 03:27:19;;;;;;;0.30;0.30;;;;;;;15.45;63.13;98163.31;3790801;23;20486;-58
2021/12/07 03:28:54;;;;;;;0.13;0.13;;;;;;;15.43;63.11;98165.34;3790748;23;20652;-54
2021/12/07 03:30:26;;;;;;;0.15;0.15;;;;;;;15.41;62.98;98160.22;3790718;23;20037;-58
2021/12/07 03:31:58;;;;;;;0.30;0.20;;;;;;;15.42;62.99;98158.34;3790948;23;20026;-53
2021/12/07 03:33:30;;;;;;;1.00;0.38;;;;;;;15.42;62.99;98163.69;3842969;23;20051;-56
2021/12/07 03:35:02;;;;;;;0.30;0.22;;;;;;;15.44;63.11;98171.53;3848435;23;20083;-57
2021/12/07 03:36:34;;;;;;;0.50;0.40;;;;;;;15.39;63.06;98170.25;3848284;23;20029;-55
2021/12/07 03:38:06;;;;;;;0.20;0.17;;;;;;;15.39;63.10;98172.94;3850907;23;20070;-58
2021/12/07 03:39:38;;;;;;;0.40;0.25;;;;;;;15.37;63.15;98177.63;3847789;23;20504;-55
2021/12/07 03:41:11;;;;;;;;;;;;;;;15.36;63.04;98184.00;3849198;23;20226;-54
2021/12/07 03:42:43;;;;;;;0.30;0.30;;;;;;;15.35;63.07;98187.72;3849343;23;19915;-55
2021/12/07 03:44:15;;;;;;;0.50;0.40;;;;;;;15.34;63.05;98182.53;3847630;23;20028;-58
2021/12/07 03:45:47;;;;;;;0.25;0.25;;;;;;;15.33;63.27;98191.59;3846259;23;20024;-58
2021/12/07 03:47:19;;;;;;;0.38;0.30;;;;;;;15.32;63.18;98190.78;3848485;23;20051;-57
2021/12/07 03:48:51;;;;;;;;;;;;;;;15.31;63.08;98189.09;3849354;23;20044;-57
2021/12/07 03:50:23;;;;;;;0.90;0.50;;;;;;;15.31;63.11;98198.97;3847896;23;20373;-57
2021/12/07 03:51:55;;;;;;;0.45;0.30;;;;;;;15.29;63.26;98188.47;3848543;23;20020;-57
2021/12/07 03:53:27;;;;;;;;;;;;;;;15.28;63.20;98196.69;3848078;23;20048;-55
2021/12/07 03:54:59;;;;;;;0.35;0.30;;;;;;;15.27;63.08;98190.53;3845034;23;19915;-57
2021/12/07 03:56:33;;;;;;;0.68;0.40;;;;;;;15.27;63.23;98185.19;3847225;23;20126;-57
2021/12/07 03:58:05;;;;;;;0.40;0.25;;;;;;;15.28;63.17;98194.84;3847393;23;20594;-57
2021/12/07 03:59:37;;;;;;;0.20;0.20;;;;;;;15.25;63.17;98187.22;3848269;23;20028;-56
2021/12/07 04:01:11;;;;;;;0.20;0.17;;;;;;;15.24;63.13;98182.91;3848491;23;20017;-56
2021/12/07 04:02:45;;;;;;;0.77;0.43;;;;;;;15.23;63.14;98183.88;3848379;23;20028;-56
2021/12/07 04:04:17;;;;;;;1.92;0.30;;;;;;;15.23;63.32;98191.91;3846400;23;20641;-58
2021/12/07 04:05:54;;;;;;;1.65;0.55;;;;;;;15.22;63.13;98190.25;3847220;23;20434;-55
2021/12/07 04:07:27;;;;;;;0.17;0.17;;;;;;;15.19;63.36;98190.66;3848304;23;20025;-57
2021/12/07 04:08:59;;;;;;;0.30;0.20;;;;;;;15.19;63.28;98188.81;3847936;23;20432;-54
2021/12/07 04:10:31;;;;;;;3.00;0.73;;;;;;;15.17;63.23;98193.50;3847772;23;20052;-58
2021/12/07 04:12:05;;;;;;;0.57;0.30;;;;;;;15.17;63.20;98188.16;3848910;23;20021;-56
2021/12/07 04:13:37;;;;;;;0.20;0.20;;;;;;;15.18;63.24;98188.97;3847928;23;20028;-54
2021/12/07 04:15:11;;;;;;;0.30;0.25;;;;;;;15.19;63.16;98190.66;3842165;23;20024;-53
2021/12/07 04:16:44;;;;;;;0.45;0.35;;;;;;;15.19;63.19;98201.34;3848513;23;20070;-56
2021/12/07 04:18:16;;;;;;;0.15;0.15;;;;;;;15.19;63.09;98199.50;3847850;23;20059;-56
2021/12/07 04:19:48;;;;;;;0.52;0.47;;;;;;;15.21;63.03;98199.31;3855005;23;20021;-55
2021/12/07 04:21:20;;;;;;;0.28;0.28;;;;;;;15.21;63.26;98204.66;3848179;23;20083;-57
2021/12/07 04:22:51;;;;;;;0.88;0.30;;;;;;;15.20;63.18;98205.66;3846860;23;20051;-58
2021/12/07 04:24:27;;;;;;;0.95;0.30;;;;;;;15.18;63.30;98200.50;3847652;23;20032;-52
2021/12/07 04:25:59;;;;;;;0.50;0.50;;;;;;;15.18;63.05;98199.66;3847775;23;20051;-54
2021/12/07 04:27:37;;;;;;;1.27;0.50;;;;;;;15.19;63.25;98198.66;3847943;23;20052;-54
2021/12/07 04:29:09;;;;;;;1.65;0.30;;;;;;;15.16;63.23;98194.53;3848383;23;20025;-59
2021/12/07 04:30:43;;;;;;;0.30;0.20;;;;;;;15.16;63.07;98185.69;3848203;23;20478;-57
2021/12/07 04:32:15;;;;;;;0.15;0.15;;;;;;;15.16;63.23;98191.03;3844340;23;20087;-56
2021/12/07 04:33:47;;;;;;;0.30;0.20;;;;;;;15.15;62.94;98186.69;3846980;23;20088;-55
2021/12/07 04:35:21;;;;;;;0.40;0.35;;;;;;;15.13;63.09;98192.25;3847334;23;20024;-54
2021/12/07 04:36:53;;;;;;;0.60;0.20;;;;;;;15.13;63.28;98194.09;3848792;23;20031;-56
2021/12/07 04:38:25;;;;;;;0.22;0.15;;;;;;;15.13;63.32;98196.78;3847544;23;20078;-58
2021/12/07 04:39:57;;;;;;;0.57;0.30;;;;;;;15.12;63.19;98192.41;3848329;23;20078;-56
2021/12/07 04:41:32;;;;;;;1.45;0.32;;;;;;;15.09;63.23;98195.47;3846189;23;20128;-57
2021/12/07 04:43:07;;;;;;;0.30;0.30;;;;;;;15.10;63.18;98205.13;3848429;23;20030;-54
2021/12/07 04:44:45;;;;;;;0.30;0.30;;;;;;;15.10;63.14;98210.47;3847371;23;20035;-53
2021/12/07 04:46:24;;;;;;;1.48;0.60;;;;;;;15.09;63.30;98211.50;3847335;23;20702;-55
2021/12/07 04:48:09;;;;;;;0.52;0.35;;;;;;;15.09;63.15;98222.19;3848016;23;20031;-57
2021/12/07 04:50:05;;;;;;;0.65;0.45;;;;;;;15.08;63.16;98218.69;3843503;23;20085;-53
2021/12/07 04:58:56;;;;;;;0.43;0.20;;;;;;;15.03;63.31;98238.97;3847642;23;20064;-57
2021/12/07 05:00:29;;;;;;;0.40;0.30;;;;;;;15.03;63.58;98245.16;3845206;23;20527;-57
2021/12/07 05:02:01;;;;;;;0.43;0.38;;;;;;;15.03;63.30;98244.31;3848837;23;20027;-55
2021/12/07 05:03:33;;;;;;;0.15;0.15;;;;;;;15.02;63.21;98242.69;3846723;23;20083;-52
2021/12/07 05:05:08;;;;;;;0.32;0.32;;;;;;;15.03;63.09;98249.66;3847379;23;20533;-52
2021/12/07 05:06:46;;;;;;;1.20;0.45;;;;;;;15.02;63.14;98242.69;3844279;23;20024;-54
2021/12/07 05:08:32;;;;;;;0.40;0.30;;;;;;;15.04;63.12;98241.44;3847385;23;20189;-57
2021/12/07 05:10:15;;;;;;;0.65;0.60;;;;;;;15.09;63.15;98249.72;3848565;23;20051;-54
2021/12/07 05:11:52;;;;;;;0.30;0.30;;;;;;;15.18;63.02;98247.75;3848443;23;20470;-54
2021/12/07 05:13:29;;;;;;;0.25;0.20;;;;;;;15.26;63.19;98236.94;3846712;23;20645;-57
2021/12/07 05:15:14;;;;;;;0.50;0.40;;;;;;;15.33;62.74;98240.50;3845501;23;20467;-58
2021/12/07 05:17:00;;;;;;;0.35;0.22;;;;;;;15.42;62.83;98239.34;3848254;23;20032;-54
2021/12/07 05:18:42;;;;;;;0.20;0.20;;;;;;;15.50;62.55;98232.22;3846720;23;20904;-54
2021/12/07 05:23:58;;;;;;;0.50;0.20;;;;;;;15.70;62.39;98225.22;3843186;23;20056;-56
2021/12/07 05:26:01;;;;;;;1.00;0.30;;;;;;;15.76;62.32;98224.41;3852111;23;20048;-55
2021/12/07 05:37:42;;;;;;;0.20;0.20;;;;;;;16.06;62.03;98202.81;3846912;23;20024;-53
2021/12/07 05:38:34;;;;;;;0.20;0.20;;;;;;;16.16;61.82;98203.28;3847015;23;20028;-56
2021/12/07 05:40:08;;;;;;;0.43;0.20;;;;;;;16.20;61.76;98204.53;3854103;23;20083;-54
2021/12/07 05:41:40;;;;;;;0.45;0.30;;;;;;;16.23;61.76;98204.13;3846134;23;20103;-54
2021/12/07 05:43:12;;;;;;;0.13;0.13;;;;;;;16.27;61.75;98213.44;3843685;23;20024;-55
2021/12/07 05:44:44;;;;;;;0.50;0.40;;;;;;;16.29;61.80;98206.00;3846391;23;20020;-57
2021/12/07 05:46:18;;;;;;;0.30;0.30;;;;;;;16.35;61.68;98211.59;3847477;23;20123;-54
2021/12/07 05:47:50;;;;;;;0.40;0.40;;;;;;;16.37;61.57;98205.00;3848099;23;20040;-57
2021/12/07 05:49:22;;;;;;;0.20;0.20;;;;;;;16.41;61.46;98205.44;3843958;23;20087;-58
2021/12/07 05:50:54;;;;;;;0.75;0.30;;;;;;;16.45;61.54;98204.03;3847202;23;20044;-57
2021/12/07 05:52:25;;;;;;;0.60;0.20;;;;;;;16.49;61.50;98205.25;3847472;23;20024;-54
2021/12/07 05:53:56;;;;;;;0.53;0.40;;;;;;;16.53;61.45;98201.19;3847602;23;20086;-57
2021/12/07 05:55:29;;;;;;;0.38;0.13;;;;;;;16.54;61.49;98200.13;3846750;23;20055;-55
2021/12/07 05:57:00;;;;;;;0.10;0.10;;;;;;;16.57;61.49;98199.72;3847182;23;20468;-56
2021/12/07 05:58:32;;;;;;;0.30;0.30;;;;;;;16.62;61.23;98196.47;3847806;23;20035;-57
2021/12/07 06:00:08;;;;;;;0.73;0.20;;;;;;;16.64;61.19;98208.63;3848103;23;20052;-53
2021/12/07 06:01:41;;;;;;;0.50;0.30;;;;;;;16.67;61.38;98213.56;3844343;23;20016;-55
2021/12/07 06:03:14;;;;;;;0.32;0.32;;;;;;;16.69;61.33;98211.53;3846337;23;20025;-54
2021/12/07 06:04:46;;;;;;;0.32;0.15;;;;;;;16.73;61.18;98223.47;3847668;23;20051;-56
2021/12/07 06:06:18;;;;;;;0.15;0.15;;;;;;;16.75;61.17;98226.78;3847652;23;20060;-57
2021/12/07 06:07:50;;;;;;;0.75;0.50;;;;;;;16.77;61.13;98233.81;3847712;23;20417;-55
2021/12/07 06:09:22;;;;;;;0.30;0.30;;;;;;;16.79;61.19;98234.44;3845571;23;20048;-57
2021/12/07 06:10:54;;;;;;;0.30;0.20;;;;;;;16.81;61.09;98238.56;3848541;23;20025;-57
2021/12/07 06:12:26;;;;;;;0.20;0.20;;;;;;;16.82;61.14;98234.03;3847502;23;20025;-56
2021/12/07 06:13:58;;;;;;;0.38;0.28;;;;;;;16.83;61.11;98241.88;3847689;23;20048;-56
2021/12/07 06:15:32;;;;;;;0.30;0.30;;;;;;;16.83;61.15;98241.88;3846663;23;20031;-54
2021/12/07 06:17:05;;;;;;;0.30;0.30;;;;;;;16.84;61.10;98229.31;3848752;23;20028;-54
2021/12/07 06:18:37;;;;;;;0.20;0.20;;;;;;;16.86;61.08;98222.72;3842245;23;20055;-57
2021/12/07 06:20:11;;;;;;;0.40;0.20;;;;;;;16.85;61.07;98223.75;3847128;23;20087;-53
2021/12/07 06:21:43;;;;;;;0.40;0.22;;;;;;;16.86;61.09;98224.59;3847923;23;20130;-56
2021/12/07 06:23:16;;;;;;;0.32;0.28;;;;;;;16.85;61.11;98215.72;3846822;23;20045;-55
2021/12/07 06:24:48;;;;;;;0.60;0.28;;;;;;;16.87;61.04;98216.34;3845313;23;20057;-56
2021/12/07 06:26:20;;;;;;;0.30;0.20;;;;;;;16.87;60.97;98213.66;3846399;23;20028;-57
2021/12/07 06:27:52;;;;;;;0.17;0.10;;;;;;;16.90;61.08;98220.47;3847101;23;20028;-55
2021/12/07 06:29:24;;;;;;;0.35;0.20;;;;;;;16.91;61.02;98224.78;3838080;23;20098;-55
2021/12/07 06:30:56;;;;;;;0.30;0.30;;;;;;;16.93;61.00;98220.06;3844927;23;20044;-57
2021/12/07 06:32:29;;;;;;;0.38;0.30;;;;;;;16.94;61.11;98216.38;3843390;23;20029;-57
2021/12/07 06:34:02;;;;;;;0.30;0.30;;;;;;;16.95;61.07;98213.47;3843211;23;20119;-57
2021/12/07 06:35:34;;;;;;;0.28;0.20;;;;;;;16.94;61.02;98214.50;3844930;23;20051;-53
2021/12/07 06:37:06;;;;;;;0.25;0.15;;;;;;;16.98;61.07;98215.75;3844758;23;20355;-55
2021/12/07 06:38:38;;;;;;;0.10;0.10;;;;;;;16.98;61.04;98222.97;3843974;23;20067;-56
2021/12/07 06:40:12;;;;;;;0.30;0.20;;;;;;;17.00;61.05;98228.13;3843613;23;20020;-57
2021/12/07 06:41:43;;;;;;;0.63;0.38;;;;;;;16.99;60.95;98227.28;3845359;23;20104;-56
2021/12/07 06:43:15;;;;;;;0.57;0.20;;;;;;;16.99;60.90;98224.59;3844118;23;20028;-57
2021/12/07 06:44:47;;;;;;;0.17;0.17;;;;;;;17.01;60.88;98235.94;3846249;23;20874;-55
2021/12/07 06:46:19;;;;;;;0.68;0.32;;;;;;;17.00;61.01;98228.94;3843657;23;20055;-55
2021/12/07 06:47:54;;;;;;;0.30;0.30;;;;;;;17.01;60.83;98235.13;3847716;23;20028;-55
2021/12/07 06:49:26;;;;;;;0.25;0.10;;;;;;;17.00;60.94;98230.81;3843890;23;20051;-56
2021/12/07 06:50:57;;;;;;;0.77;0.40;;;;;;;16.99;60.88;98229.97;3841728;23;20031;-56
2021/12/07 06:52:29;;;;;;;0.20;0.20;;;;;;;17.00;60.90;98236.16;3844405;23;20127;-54
2021/12/07 06:54:01;;;;;;;0.22;0.20;;;;;;;16.99;60.88;98235.31;3845555;23;20467;-54
2021/12/07 06:55:33;;;;;;;0.20;0.20;;;;;;;16.99;60.90;98235.31;3845665;23;20328;-56
2021/12/07 06:57:06;;;;;;;0.30;0.20;;;;;;;16.99;60.90;98235.31;3841173;23;20032;-57
2021/12/07 06:58:38;;;;;;;0.20;0.15;;;;;;;17.00;61.07;98238.84;3846312;23;20025;-56
2021/12/07 07:00:12;;;;;;;0.22;0.22;;;;;;;17.01;60.95;98248.53;3844955;23;20422;-53
2021/12/07 07:01:44;;;;;;;0.43;0.35;;;;;;;17.01;60.94;98253.88;3846642;23;20021;-53
2021/12/07 07:03:17;;;;;;;0.20;0.10;;;;;;;17.03;60.91;98249.16;3844665;23;20056;-56
2021/12/07 07:04:49;;;;;;;0.15;0.15;;;;;;;17.03;60.85;98257.19;3845476;23;20103;-55
2021/12/07 07:06:21;;;;;;;0.30;0.30;;;;;;;17.03;60.83;98258.00;3845230;23;20059;-55
2021/12/07 07:07:53;;;;;;;0.45;0.20;;;;;;;17.02;60.93;98259.06;3846922;23;20024;-56
2021/12/07 07:09:25;;;;;;;0.40;0.35;;;;;;;17.02;61.04;98256.38;3845593;23;20025;-54
2021/12/07 07:10:57;;;;;;;0.38;0.35;;;;;;;17.03;61.01;98255.34;3847014;23;20538;-56
2021/12/07 07:12:28;;;;;;;0.40;0.40;;;;;;;17.03;60.98;98252.66;3844852;23;20434;-56
2021/12/07 07:14:01;;;;;;;;;;;;;;;17.04;61.05;98254.28;3845966;23;20051;-57
2021/12/07 07:15:33;;;;;;;0.50;0.50;;;;;;;17.06;60.89;98262.97;3830016;23;20276;-57
2021/12/07 07:17:05;;;;;;;0.28;0.20;;;;;;;17.07;60.88;98267.28;3846229;23;20570;-57
2021/12/07 07:18:38;;;;;;;0.20;0.20;;;;;;;17.09;60.84;98262.56;3846168;23;20032;-56
2021/12/07 07:20:13;;;;;;;0.17;0.13;;;;;;;17.07;60.82;98267.28;3845496;23;20032;-57
2021/12/07 07:21:44;;;;;;;0.30;0.30;;;;;;;17.08;60.92;98260.91;3840964;23;20385;-56
2021/12/07 07:23:16;;;;;;;0.17;0.17;;;;;;;17.09;60.96;98259.88;3844731;23;20028;-57
2021/12/07 07:24:48;;;;;;;1.00;0.20;;;;;;;17.11;60.86;98271.22;3845194;23;20120;-57
2021/12/07 07:26:20;;;;;;;0.15;0.15;;;;;;;17.11;60.83;98268.53;3845873;23;20030;-54
2021/12/07 07:27:52;;;;;;;0.30;0.20;;;;;;;17.13;60.76;98262.97;3846424;23;20025;-57
2021/12/07 07:29:24;;;;;;;0.50;0.32;;;;;;;17.14;60.89;98265.47;3840845;23;20044;-55
2021/12/07 07:30:57;;;;;;;0.20;0.20;;;;;;;17.16;60.86;98258.06;3848217;23;20084;-57
2021/12/07 07:32:29;;;;;;;0.47;0.20;;;;;;;17.18;60.82;98261.31;3846642;23;20036;-56
2021/12/07 07:34:03;;;;;;;0.15;0.13;;;;;;;17.18;60.87;98261.31;3847615;23;20079;-57
2021/12/07 07:35:35;;;;;;;0.45;0.20;;;;;;;17.19;60.74;98264.84;3840863;23;20633;-57
2021/12/07 07:37:07;;;;;;;0.35;0.20;;;;;;;17.19;60.80;98264.84;3845525;23;20025;-55
2021/12/07 07:38:39;;;;;;;0.22;0.22;;;;;;;17.20;60.86;98263.81;3840491;23;21108;-57
2021/12/07 07:40:15;;;;;;;0.22;0.10;;;;;;;17.20;60.80;98263.81;3843172;23;20047;-56
2021/12/07 07:41:48;;;;;;;1.40;0.20;;;;;;;17.19;60.82;98260.31;3846797;23;20690;-55
2021/12/07 07:43:19;;;;;;;0.38;0.15;;;;;;;17.19;60.78;98257.63;3847020;23;20032;-56
2021/12/07 07:44:51;;;;;;;0.20;0.20;;;;;;;17.19;60.71;98268.34;3848232;23;20036;-56
2021/12/07 07:46:23;;;;;;;0.40;0.20;;;;;;;17.20;60.81;98270.00;3846937;23;20511;-57
2021/12/07 07:47:55;;;;;;;0.40;0.28;;;;;;;17.19;60.83;98263.00;3844950;23;20054;-58
2021/12/07 07:49:29;;;;;;;0.45;0.10;;;;;;;17.19;60.83;98260.31;3846874;23;20029;-56
2021/12/07 07:51:01;;;;;;;0.30;0.30;;;;;;;17.17;60.94;98258.88;3847923;23;20024;-54
2021/12/07 07:52:33;;;;;;;0.25;0.25;;;;;;;17.16;60.78;98258.06;3846642;23;20025;-55
2021/12/07 07:54:05;;;;;;;0.10;0.10;;;;;;;17.17;60.84;98269.59;3846147;23;20025;-55
2021/12/07 07:55:38;;;;;;;0.32;0.32;;;;;;;17.17;60.92;98265.06;3843086;23;20036;-57
2021/12/07 07:57:10;;;;;;;0.05;0.05;;;;;;;17.16;60.68;98271.44;3846706;23;20044;-57
2021/12/07 07:58:41;;;;;;;0.10;0.10;;;;;;;17.15;60.79;98272.47;3846080;23;20021;-56
2021/12/07 08:00:18;;;;;;;0.10;0.10;;;;;;;17.15;60.88;98279.69;3844608;23;20597;-56
2021/12/07 08:01:50;;;;;;;0.20;0.10;;;;;;;17.12;60.75;98280.91;3845418;23;20025;-57
2021/12/07 08:03:22;;;;;;;0.20;0.20;;;;;;;17.11;60.98;98281.13;3843437;23;20431;-57
2021/12/07 08:04:55;;;;;;;0.22;0.10;;;;;;;17.11;60.98;98275.75;3844993;23;20047;-57
2021/12/07 08:06:27;;;;;;;0.30;0.30;;;;;;;17.11;60.94;98289.16;3846371;23;20101;-57
2021/12/07 08:07:59;;;;;;;0.20;0.20;;;;;;;17.08;60.94;98282.34;3846407;23;20115;-57
2021/12/07 08:09:31;;;;;;;0.22;0.20;;;;;;;17.07;60.97;98279.84;3846113;23;20071;-57
2021/12/07 08:11:03;;;;;;;0.30;0.30;;;;;;;17.07;60.72;98282.53;3844946;23;20028;-56
2021/12/07 08:12:35;;;;;;;0.20;0.20;;;;;;;17.05;61.11;98292.63;3844103;23;20410;-57
2021/12/07 08:14:07;;;;;;;0.30;0.15;;;;;;;17.04;60.97;98290.97;3847120;23;20048;-56
2021/12/07 08:15:42;;;;;;;0.85;0.25;;;;;;;17.03;60.90;98290.16;3845127;23;20394;-56
2021/12/07 08:17:14;;;;;;;0.30;0.30;;;;;;;17.02;61.08;98298.38;3845736;23;20055;-58
2021/12/07 08:18:48;;;;;;;0.38;0.20;;;;;;;17.00;61.07;98292.44;3846523;23;20099;-57
2021/12/07 08:20:22;;;;;;;0.20;0.20;;;;;;;16.98;61.00;98292.63;3846287;23;20074;-57
2021/12/07 08:21:54;;;;;;;0.52;0.15;;;;;;;16.96;61.11;98283.94;3847282;23;20032;-57
2021/12/07 08:23:25;;;;;;;0.90;0.20;;;;;;;16.95;61.03;98285.81;3846512;23;20083;-57
2021/12/07 08:24:57;;;;;;;;;;;;;;;16.91;61.06;98297.97;3847018;23;20086;-57
2021/12/07 08:26:29;;;;;;;0.30;0.30;;;;;;;16.90;61.25;98298.97;3846207;23;19924;-57
2021/12/07 08:28:01;;;;;;;0.15;0.15;;;;;;;16.90;61.23;98298.16;3846495;23;20051;-57
2021/12/07 08:29:33;;;;;;;0.30;0.30;;;;;;;16.86;61.25;98294.22;3844664;23;20415;-56
2021/12/07 08:31:05;;;;;;;0.43;0.30;;;;;;;16.86;61.21;98299.59;3847025;23;20029;-58
2021/12/07 08:32:39;;;;;;;0.40;0.20;;;;;;;16.84;61.32;98298.97;3846597;23;20032;-57